Time;durP1;ratioP1;P1;durP2;ratioP2;P2;SDS_P1;SDS_P2;PMS_P1;PMS_P2;Temp;Humidity;BMP_temperature;BMP_pressure;BME280_temperature;BME280_humidity;BME280_pressure;Samples;Min_cycle;Max_cycle;Signal;HPM_P1;HPM_P2
2024/03/24 00:00:11;;;;;;;;;2.00;1.00;;;;;9.89;68.96;100949.72;5080257;27;45294;-76
2024/03/24 00:02:38;;;;;;;;;1.00;1.00;;;;;9.90;69.42;100946.09;5078530;28;45448;-76
2024/03/24 00:05:03;;;;;;;;;2.50;1.50;;;;;9.89;69.01;100938.16;5069581;28;45318;-76
2024/03/24 00:07:29;;;;;;;;;1.00;1.00;;;;;9.91;69.73;100947.00;5080135;27;46219;-76
2024/03/24 00:09:54;;;;;;;;;0.00;0.00;;;;;9.88;68.86;100934.63;5079610;28;65666;-76
2024/03/24 00:12:20;;;;;;;;;1.00;1.00;;;;;9.88;69.16;100931.94;5080165;27;45424;-75
2024/03/24 00:14:45;;;;;;;;;1.25;1.00;;;;;9.87;68.94;100934.66;5079926;27;45379;-76
2024/03/24 00:17:10;;;;;;;;;2.75;1.00;;;;;9.82;68.94;100933.00;5079686;27;47172;-76
2024/03/24 00:19:36;;;;;;;;;1.00;1.00;;;;;9.84;69.25;100943.63;5080173;27;45442;-75
2024/03/24 00:22:01;;;;;;;;;2.00;0.00;;;;;9.80;68.63;100937.47;5079515;28;64672;-75
2024/03/24 00:24:26;;;;;;;;;0.75;0.75;;;;;9.79;69.00;100932.22;5079988;28;45534;-75
2024/03/24 00:26:52;;;;;;;;;0.00;0.00;;;;;9.77;68.86;100936.69;5079602;28;50024;-75
2024/03/24 00:29:17;;;;;;;;;0.00;0.00;;;;;9.73;69.33;100927.88;5080092;27;45457;-75
2024/03/24 00:31:42;;;;;;;;;1.75;1.00;;;;;9.77;68.97;100942.91;5078348;28;52348;-76
2024/03/24 00:34:07;;;;;;;;;0.00;0.00;;;;;9.75;69.14;100938.50;5079244;27;48580;-75
2024/03/24 00:36:33;;;;;;;;;0.00;0.00;;;;;9.79;68.93;100946.41;5077065;28;60133;-75
2024/03/24 00:38:58;;;;;;;;;0.00;0.00;;;;;9.72;68.76;100928.81;5073223;27;49926;-75
2024/03/24 00:41:23;;;;;;;;;0.50;0.50;;;;;9.80;68.86;100942.81;5079676;27;45345;-76
2024/03/24 00:43:49;;;;;;;;;1.00;0.00;;;;;9.80;68.67;100933.94;5079653;27;45548;-75
2024/03/24 00:46:14;;;;;;;;;1.00;0.00;;;;;9.79;68.50;100940.22;5078259;28;57956;-75
2024/03/24 00:48:39;;;;;;;;;0.00;0.00;;;;;9.70;68.71;100919.09;5079509;27;49641;-75
2024/03/24 00:51:05;;;;;;;;;1.00;1.00;;;;;9.71;68.88;100932.41;5079990;28;45465;-75
2024/03/24 00:53:30;;;;;;;;;1.75;1.00;;;;;9.73;69.27;100935.03;5079015;28;64917;-75
2024/03/24 00:55:55;;;;;;;;;0.00;0.00;;;;;9.70;69.36;100930.63;5078939;28;61479;-75
2024/03/24 00:58:21;;;;;;;;;0.00;0.00;;;;;9.68;69.26;100919.13;5079573;27;45396;-75
2024/03/24 01:00:46;;;;;;;;;1.00;1.00;;;;;9.67;69.65;100921.84;5079519;28;45333;-75
2024/03/24 01:03:12;;;;;;;;;0.00;0.00;;;;;9.62;69.11;100913.97;5078981;27;45301;-75
2024/03/24 01:05:37;;;;;;;;;1.25;1.00;;;;;9.63;69.08;100913.06;5068445;27;46405;-76
2024/03/24 01:08:03;;;;;;;;;5.00;2.75;;;;;9.63;69.42;100911.25;5079301;28;45244;-75
2024/03/24 01:10:28;;;;;;;;;1.00;1.00;;;;;9.63;69.43;100916.59;5079664;27;45533;-75
2024/03/24 01:12:54;;;;;;;;;0.75;0.75;;;;;9.63;69.30;100907.72;5079339;27;45358;-75
2024/03/24 01:15:19;;;;;;;;;2.00;0.25;;;;;9.61;69.20;100898.91;5078692;28;45302;-75
2024/03/24 01:17:45;;;;;;;;;0.75;0.75;;;;;9.64;68.97;100907.69;5079254;27;45374;-75
2024/03/24 01:20:11;;;;;;;;;1.25;1.25;;;;;9.72;69.32;100915.50;5079428;27;45498;-75
2024/03/24 01:22:37;;;;;;;;;0.00;0.00;;;;;9.67;69.02;100901.38;5079434;28;45597;-75
2024/03/24 01:25:04;;;;;;;;;0.00;0.00;;;;;9.68;68.92;100902.28;5078809;27;45494;-75
2024/03/24 01:27:29;;;;;;;;;0.50;0.00;;;;;9.62;69.08;100901.53;5078954;27;45615;-75
2024/03/24 01:29:55;;;;;;;;;1.00;0.00;;;;;9.64;69.16;100893.50;5079175;27;45591;-75
2024/03/24 01:32:20;;;;;;;;;1.00;0.75;;;;;9.67;68.75;100896.06;5077856;27;45568;-75
2024/03/24 01:34:45;;;;;;;;;0.00;0.00;;;;;9.68;68.95;100895.16;5077848;28;60981;-75
2024/03/24 01:37:10;;;;;;;;;0.00;0.00;;;;;9.71;68.61;100894.22;5075435;28;62739;-75
2024/03/24 01:39:36;;;;;;;;;1.00;1.00;;;;;9.70;69.18;100893.31;5079141;27;45344;-75
2024/03/24 01:42:01;;;;;;;;;3.00;1.00;;;;;9.76;68.43;100901.16;5078347;27;56105;-75
2024/03/24 01:44:26;;;;;;;;;2.00;0.00;;;;;9.76;69.35;100906.50;5078771;28;46105;-75
2024/03/24 01:46:52;;;;;;;;;0.00;0.00;;;;;9.70;69.10;100895.13;5078018;27;60147;-75
2024/03/24 01:49:17;;;;;;;;;0.50;0.50;;;;;9.76;69.02;100897.63;5079000;27;45652;-75
2024/03/24 01:51:43;;;;;;;;;1.75;0.00;;;;;9.68;68.83;100884.50;5078808;28;49188;-75
2024/03/24 01:54:11;;;;;;;;;0.00;0.00;;;;;9.72;69.08;100894.16;5078595;27;45669;-75
2024/03/24 01:56:37;;;;;;;;;2.25;1.00;;;;;9.64;69.18;100885.50;5080701;27;45356;-75
2024/03/24 01:59:02;;;;;;;;;2.50;0.75;;;;;9.40;68.90;100847.88;5081941;28;45522;-74
2024/03/24 02:01:27;;;;;;;;;0.00;0.00;;;;;9.57;68.81;100873.22;5080008;28;45495;-75
2024/03/24 02:03:53;;;;;;;;;0.00;0.00;;;;;9.62;69.14;100882.88;5079370;28;45543;-75
2024/03/24 02:06:18;;;;;;;;;0.50;0.00;;;;;9.61;68.92;100874.91;5074315;28;45372;-75
2024/03/24 02:08:43;;;;;;;;;0.50;0.50;;;;;9.62;68.91;100863.31;5082013;28;45521;-75
2024/03/24 02:11:09;;;;;;;;;0.75;0.75;;;;;9.59;68.90;100869.63;5082320;27;45445;-75
2024/03/24 02:13:34;;;;;;;;;1.00;0.75;;;;;9.70;68.74;100887.13;5080377;28;45487;-75
2024/03/24 02:15:59;;;;;;;;;0.25;0.25;;;;;9.59;68.72;100866.09;5081778;27;45431;-75
2024/03/24 02:18:25;;;;;;;;;0.00;0.00;;;;;9.59;68.78;100874.94;5081922;27;45444;-75
2024/03/24 02:20:50;;;;;;;;;0.00;0.00;;;;;9.61;69.04;100881.09;5081701;27;45600;-75
2024/03/24 02:23:16;;;;;;;;;2.25;0.75;;;;;9.62;69.09;100890.88;5080539;27;48274;-75
2024/03/24 02:25:41;;;;;;;;;1.00;1.00;;;;;9.63;68.41;100875.75;5076457;28;45311;-75
2024/03/24 02:28:07;;;;;;;;;2.00;1.00;;;;;9.63;68.53;100876.59;5081924;28;45264;-74
2024/03/24 02:30:32;;;;;;;;;0.00;0.00;;;;;9.58;68.38;100869.66;5080574;28;45331;-75
2024/03/24 02:32:57;;;;;;;;;0.00;0.00;;;;;9.61;68.72;100875.78;5080547;27;54894;-75
2024/03/24 02:35:25;;;;;;;;;2.00;1.00;;;;;9.54;68.17;100871.53;5080847;27;45444;-75
2024/03/24 02:37:50;;;;;;;;;1.00;0.00;;;;;9.62;68.40;100873.97;5078781;28;45509;-75
2024/03/24 02:40:16;;;;;;;;;1.00;1.00;;;;;9.49;68.51;100849.47;5081670;28;45314;-75
2024/03/24 02:42:41;;;;;;;;;1.50;0.00;;;;;9.61;68.32;100869.59;5081553;28;46581;-75
2024/03/24 02:45:07;;;;;;;;;1.00;1.00;;;;;9.59;68.47;100869.63;5081509;28;45514;-75
2024/03/24 02:47:32;;;;;;;;;2.75;0.00;;;;;9.51;68.49;100857.41;5081321;27;45396;-75
2024/03/24 02:50:01;;;;;;;;;0.00;0.00;;;;;9.56;68.60;100871.50;5081527;28;51594;-75
2024/03/24 02:52:26;;;;;;;;;0.00;0.00;;;;;9.50;68.26;100866.31;5081468;27;45315;-75
2024/03/24 02:54:51;;;;;;;;;1.00;1.00;;;;;9.41;68.34;100854.13;5081554;27;45259;-75
2024/03/24 02:57:17;;;;;;;;;2.00;1.00;;;;;9.46;68.30;100858.41;5080704;27;45252;-75
2024/03/24 02:59:42;;;;;;;;;1.00;0.50;;;;;9.49;68.44;100864.56;5081141;28;45408;-75
2024/03/24 03:02:08;;;;;;;;;0.75;0.00;;;;;9.32;67.89;100833.91;5079509;27;46216;-75
2024/03/24 03:04:33;;;;;;;;;0.75;0.75;;;;;9.40;68.35;100855.00;5071859;28;45756;-75
2024/03/24 03:06:58;;;;;;;;;0.00;0.00;;;;;9.49;68.27;100868.13;5078994;28;45855;-75
2024/03/24 03:09:26;;;;;;;;;1.00;1.00;;;;;9.49;67.98;100856.56;5079623;28;45501;-75
2024/03/24 03:11:52;;;;;;;;;1.50;1.00;;;;;9.44;67.72;100851.38;5079592;28;48326;-75
2024/03/24 03:14:17;;;;;;;;;0.00;0.00;;;;;9.55;67.95;100881.25;5081411;27;45369;-75
2024/03/24 03:16:43;;;;;;;;;2.25;1.00;;;;;9.51;67.52;100863.63;5080577;27;45378;-75
2024/03/24 03:19:08;;;;;;;;;1.00;1.00;;;;;9.48;67.98;100863.69;5081103;27;46837;-75
2024/03/24 03:21:33;;;;;;;;;1.00;1.00;;;;;9.55;68.01;100881.25;5079365;28;52986;-75
2024/03/24 03:23:59;;;;;;;;;1.25;0.00;;;;;9.29;67.96;100836.66;5081072;27;45373;-75
2024/03/24 03:26:26;;;;;;;;;0.75;0.00;;;;;9.56;67.87;100876.81;5080480;27;46772;-75
2024/03/24 03:28:51;;;;;;;;;2.00;1.00;;;;;9.49;67.99;100869.88;5080318;27;45372;-75
2024/03/24 03:31:17;;;;;;;;;2.25;1.00;;;;;9.48;68.09;100868.16;5080261;27;46794;-75
2024/03/24 03:33:42;;;;;;;;;0.00;0.00;;;;;9.37;67.94;100847.09;5081083;27;45327;-75
2024/03/24 03:36:08;;;;;;;;;1.00;0.00;;;;;9.54;67.79;100871.53;5078792;28;45356;-75
2024/03/24 03:38:33;;;;;;;;;1.25;0.25;;;;;9.54;67.76;100875.97;5079237;28;45247;-75
2024/03/24 03:40:59;;;;;;;;;0.75;0.75;;;;;9.46;68.12;100852.19;5080528;27;46529;-75
2024/03/24 03:43:24;;;;;;;;;2.00;1.00;;;;;9.52;68.07;100861.81;5081000;27;45600;-75
2024/03/24 03:45:50;;;;;;;;;2.00;1.00;;;;;9.52;67.37;100861.81;5080240;27;45338;-75
2024/03/24 03:48:15;;;;;;;;;1.25;1.00;;;;;9.37;67.80;100849.75;5093029;27;45642;-75
2024/03/24 03:50:41;;;;;;;;;1.00;0.00;;;;;9.52;67.84;100872.47;5077209;28;46159;-75
2024/03/24 03:53:07;;;;;;;;;2.25;1.00;;;;;9.45;68.28;100869.09;5079291;28;46061;-75
2024/03/24 03:55:33;;;;;;;;;0.00;0.00;;;;;9.40;67.70;100863.00;5080357;27;45512;-74
2024/03/24 03:57:59;;;;;;;;;1.00;1.00;;;;;9.41;68.37;100856.78;5079778;27;45633;-75
2024/03/24 04:00:25;;;;;;;;;1.00;1.00;;;;;9.32;67.91;100847.25;5080036;27;45709;-75
2024/03/24 04:02:51;;;;;;;;;1.00;0.75;;;;;9.42;68.04;100870.06;5079042;28;45391;-74
2024/03/24 04:05:17;;;;;;;;;2.00;1.00;;;;;9.51;68.05;100873.41;5069889;27;45315;-74
2024/03/24 04:07:42;;;;;;;;;0.00;0.00;;;;;9.44;68.12;100854.03;5080341;27;45488;-75
2024/03/24 04:10:08;;;;;;;;;2.00;1.25;;;;;9.34;68.02;100845.41;5080167;28;46371;-75
2024/03/24 04:12:34;;;;;;;;;0.75;0.75;;;;;9.45;67.60;100861.09;5079000;28;45331;-75
2024/03/24 04:15:00;;;;;;;;;1.50;1.00;;;;;9.49;67.87;100868.13;5094181;27;45568;-75
2024/03/24 04:17:26;;;;;;;;;0.75;0.75;;;;;9.44;67.81;100870.03;5078342;27;45615;-75
2024/03/24 04:19:56;;;;;;;;;0.25;0.25;;;;;9.43;67.94;100874.47;5078908;27;46106;-75
2024/03/24 04:22:21;;;;;;;;;1.00;1.00;;;;;9.43;68.18;100868.25;5080243;27;45529;-75
2024/03/24 04:24:50;;;;;;;;;1.00;0.00;;;;;9.44;68.16;100878.88;5082539;27;45407;-75
2024/03/24 04:27:16;;;;;;;;;1.00;0.00;;;;;9.36;67.97;100869.34;5077173;28;45530;-75
2024/03/24 04:29:42;;;;;;;;;2.75;1.00;;;;;9.30;67.76;100861.50;5077954;28;48217;-75
2024/03/24 04:32:08;;;;;;;;;0.00;0.00;;;;;9.44;67.80;100888.69;5079657;27;45338;-75
2024/03/24 04:34:33;;;;;;;;;0.25;0.00;;;;;9.31;67.99;100869.44;5080035;27;45603;-75
2024/03/24 04:36:59;;;;;;;;;1.00;0.00;;;;;9.32;68.25;100865.00;5076956;27;45542;-75
2024/03/24 04:39:24;;;;;;;;;0.50;0.50;;;;;9.44;67.80;100894.88;5079898;27;46067;-75
2024/03/24 04:41:50;;;;;;;;;0.25;0.25;;;;;9.35;68.29;100880.91;5078630;28;45397;-74
2024/03/24 04:44:15;;;;;;;;;2.25;1.00;;;;;9.40;67.71;100895.84;5080115;27;45407;-75
2024/03/24 04:46:40;;;;;;;;;4.25;1.00;;;;;9.36;68.01;100890.66;5079228;27;46872;-75
2024/03/24 04:49:06;;;;;;;;;0.00;0.00;;;;;9.35;67.42;100888.91;5077763;28;46306;-75
2024/03/24 04:51:31;;;;;;;;;2.00;1.00;;;;;9.33;67.77;100888.94;5079900;27;45297;-75
2024/03/24 04:53:56;;;;;;;;;0.00;0.00;;;;;9.37;68.13;100889.72;5079768;27;45434;-75
2024/03/24 04:56:22;;;;;;;;;2.25;0.00;;;;;9.22;67.87;100875.00;5079763;27;45505;-74
2024/03/24 04:58:48;;;;;;;;;1.00;0.00;;;;;9.36;67.83;100904.84;5078762;27;45378;-75
2024/03/24 05:01:14;;;;;;;;;1.00;1.00;;;;;9.35;67.96;100910.22;5079164;27;45360;-75
2024/03/24 05:03:39;;;;;;;;;1.50;1.00;;;;;9.22;68.32;100897.19;5078850;27;45497;-75
2024/03/24 05:06:05;;;;;;;;;1.00;0.00;;;;;9.37;67.70;100908.38;5068250;28;55732;-75
2024/03/24 05:08:33;;;;;;;;;0.00;0.00;;;;;9.30;67.74;100904.13;5077966;28;47231;-75
2024/03/24 05:11:00;;;;;;;;;0.00;0.00;;;;;9.25;68.08;100896.22;5079542;27;45652;-75
2024/03/24 05:13:25;;;;;;;;;1.00;1.00;;;;;9.34;67.93;100906.69;5079368;27;45530;-75
2024/03/24 05:15:51;;;;;;;;;1.00;1.00;;;;;9.38;68.04;100902.16;5078612;28;45366;-75
2024/03/24 05:18:16;;;;;;;;;0.75;0.75;;;;;9.33;68.44;100891.59;5077262;28;46599;-75
2024/03/24 05:20:42;;;;;;;;;0.75;0.75;;;;;9.25;68.07;100872.25;5079484;28;45314;-75
2024/03/24 05:23:07;;;;;;;;;0.00;0.00;;;;;9.16;68.48;100864.50;5077997;28;45244;-75
2024/03/24 05:25:33;;;;;;;;;2.00;0.00;;;;;9.33;67.90;100898.72;5077766;28;45583;-75
2024/03/24 05:27:59;;;;;;;;;3.75;0.00;;;;;9.32;68.09;100900.53;5078041;27;45313;-75
2024/03/24 05:30:27;;;;;;;;;0.25;0.25;;;;;9.30;67.89;100904.13;5079808;27;45305;-75
2024/03/24 05:32:53;;;;;;;;;1.50;0.75;;;;;9.28;67.77;100899.69;5085757;27;45473;-75
2024/03/24 05:35:18;;;;;;;;;1.00;1.00;;;;;9.17;68.19;100888.44;5085718;27;45523;-75
2024/03/24 05:37:44;;;;;;;;;0.25;0.25;;;;;9.25;68.18;100902.47;5083720;27;46628;-75
2024/03/24 05:40:13;;;;;;;;;0.00;0.00;;;;;9.24;68.00;100895.38;5084712;28;45739;-75
2024/03/24 05:42:38;;;;;;;;;2.00;0.75;;;;;9.26;67.77;100904.19;5088074;27;45332;-75
2024/03/24 05:45:04;;;;;;;;;0.00;0.00;;;;;9.22;67.81;100886.53;5084253;28;45610;-75
2024/03/24 05:47:30;;;;;;;;;0.75;0.00;;;;;9.19;67.79;100886.63;5085009;27;45357;-75
2024/03/24 05:49:56;;;;;;;;;2.25;0.00;;;;;9.23;67.93;100896.25;5085751;28;45359;-75
2024/03/24 05:52:22;;;;;;;;;1.00;1.00;;;;;9.30;67.92;100901.47;5085835;27;45416;-75
2024/03/24 05:54:47;;;;;;;;;0.00;0.00;;;;;9.14;68.00;100880.53;5085716;27;45437;-75
2024/03/24 05:57:13;;;;;;;;;1.75;1.00;;;;;9.25;67.93;100893.56;5083262;28;52294;-75
2024/03/24 05:59:39;;;;;;;;;0.75;0.00;;;;;9.23;67.56;100898.06;5085402;27;45633;-75
2024/03/24 06:02:04;;;;;;;;;0.50;0.00;;;;;9.25;67.91;100889.13;5085474;27;45362;-75
2024/03/24 06:04:31;;;;;;;;;0.25;0.25;;;;;9.29;67.86;100908.59;5076503;28;45515;-75
2024/03/24 06:06:57;;;;;;;;;0.50;0.00;;;;;9.32;67.42;100911.19;5082136;28;46324;-75
2024/03/24 06:09:22;;;;;;;;;3.25;0.50;;;;;9.30;68.08;100897.00;5084886;27;63432;-75
2024/03/24 06:11:47;;;;;;;;;2.75;1.00;;;;;9.25;67.78;100897.13;5083277;28;55788;-75
2024/03/24 06:14:13;;;;;;;;;1.00;1.00;;;;;9.16;67.54;100886.69;5085582;28;45480;-75
2024/03/24 06:16:40;;;;;;;;;3.00;2.00;;;;;9.35;67.57;100923.53;5083384;27;48184;-75
2024/03/24 06:19:05;;;;;;;;;0.50;0.25;;;;;9.28;67.58;100901.50;5084003;28;46105;-75
2024/03/24 06:21:30;;;;;;;;;1.25;1.25;;;;;9.34;67.22;100927.09;5085456;27;45518;-75
2024/03/24 06:23:56;;;;;;;;;2.00;0.00;;;;;9.35;67.14;100913.72;5083998;28;45368;-75
2024/03/24 06:26:21;;;;;;;;;0.25;0.25;;;;;9.34;67.25;100909.34;5084051;27;45564;-75
2024/03/24 06:28:47;;;;;;;;;0.75;0.00;;;;;9.26;67.50;100901.53;5085364;27;45362;-75
2024/03/24 06:31:12;;;;;;;;;2.00;1.00;;;;;9.25;67.78;100899.78;5084728;28;45932;-75
2024/03/24 06:33:37;;;;;;;;;1.75;1.75;;;;;9.33;67.35;100914.69;5085405;27;45435;-75
2024/03/24 06:36:03;;;;;;;;;0.75;0.75;;;;;9.32;67.98;100908.50;5084525;28;46344;-75
2024/03/24 06:38:28;;;;;;;;;1.25;1.00;;;;;9.30;67.47;100912.09;5082052;28;45398;-75
2024/03/24 06:40:54;;;;;;;;;1.00;0.25;;;;;9.32;67.31;100907.63;5087818;27;45620;-75
2024/03/24 06:43:23;;;;;;;;;2.75;1.00;;;;;9.26;67.29;100900.66;5081827;27;45434;-75
2024/03/24 06:45:49;;;;;;;;;0.00;0.00;;;;;9.30;67.52;100904.97;5081035;28;45943;-75
2024/03/24 06:48:14;;;;;;;;;0.50;0.50;;;;;9.29;67.68;100911.25;5081480;27;45325;-74
2024/03/24 06:50:39;;;;;;;;;0.00;0.00;;;;;9.25;67.36;100901.56;5080534;27;45470;-72
2024/03/24 06:53:05;;;;;;;;;0.50;0.00;;;;;9.33;67.68;100922.69;5081109;28;47803;-70
2024/03/24 06:55:30;;;;;;;;;0.00;0.00;;;;;9.36;67.73;100920.81;5082053;27;54841;-71
2024/03/24 06:57:55;;;;;;;;;1.75;0.75;;;;;9.34;67.95;100917.34;5080489;27;45739;-71
2024/03/24 07:00:21;;;;;;;;;1.25;1.25;;;;;9.31;68.02;100906.75;5080970;27;50998;-73
2024/03/24 07:02:48;;;;;;;;;0.00;0.00;;;;;9.38;67.44;100923.47;5080537;27;45586;-74
2024/03/24 07:05:14;;;;;;;;;1.00;1.00;;;;;9.28;67.79;100905.03;5074025;28;46237;-73
2024/03/24 07:07:39;;;;;;;;;1.50;0.00;;;;;9.32;67.49;100910.28;5073604;28;45525;-73
2024/03/24 07:10:06;;;;;;;;;1.50;0.50;;;;;9.39;67.83;100920.75;5079523;28;45410;-73
2024/03/24 07:12:31;;;;;;;;;1.00;1.00;;;;;9.34;67.83;100901.34;5084905;27;46489;-74
2024/03/24 07:14:56;;;;;;;;;1.25;0.00;;;;;9.39;67.59;100906.56;5080908;27;45241;-74
2024/03/24 07:17:22;;;;;;;;;1.00;1.00;;;;;9.41;67.60;100910.06;5074410;28;45456;-74
2024/03/24 07:19:47;;;;;;;;;1.00;0.00;;;;;9.26;68.14;100890.00;5080992;28;45714;-74
2024/03/24 07:22:13;;;;;;;;;1.25;0.25;;;;;9.39;67.81;100906.56;5079489;28;50346;-74
2024/03/24 07:24:38;;;;;;;;;1.50;0.00;;;;;9.45;68.11;100914.38;5079341;28;47558;-74
2024/03/24 07:27:04;;;;;;;;;1.25;0.00;;;;;9.47;67.77;100920.53;5069215;27;45290;-74
2024/03/24 07:29:29;;;;;;;;;0.75;0.00;;;;;9.46;68.18;100910.81;5075086;28;45677;-74
2024/03/24 07:31:54;;;;;;;;;0.00;0.00;;;;;9.49;68.31;100918.75;5076798;28;45480;-74
2024/03/24 07:34:20;;;;;;;;;1.75;0.75;;;;;9.52;67.83;100926.66;5078806;28;46061;-74
2024/03/24 07:36:45;;;;;;;;;1.00;1.00;;;;;9.53;67.83;100923.06;5078216;28;61638;-74
2024/03/24 07:39:10;;;;;;;;;3.00;1.00;;;;;9.57;67.84;100927.44;5072590;28;51354;-74
2024/03/24 07:41:36;;;;;;;;;0.75;0.75;;;;;9.45;67.33;100909.06;5080049;28;46134;-75
2024/03/24 07:44:02;;;;;;;;;4.00;1.00;;;;;9.52;68.01;100913.34;5076700;28;48652;-70
2024/03/24 07:46:27;;;;;;;;;1.00;1.00;;;;;9.62;68.10;100927.28;5079982;27;45371;-71
2024/03/24 07:48:52;;;;;;;;;1.00;1.00;;;;;9.67;67.79;100933.38;5080321;27;45477;-73
2024/03/24 07:51:18;;;;;;;;;1.25;1.00;;;;;9.67;68.02;100935.16;5074464;28;52324;-76
2024/03/24 07:53:43;;;;;;;;;2.25;1.00;;;;;9.71;68.03;100937.72;5076309;28;59059;-76
2024/03/24 07:56:08;;;;;;;;;2.25;0.75;;;;;9.68;67.55;100944.94;5077836;27;45532;-76
2024/03/24 07:58:34;;;;;;;;;0.25;0.25;;;;;9.67;67.58;100937.84;5079172;27;45395;-77
2024/03/24 08:00:59;;;;;;;;;1.75;0.50;;;;;9.67;67.99;100930.69;5076842;27;45673;-75
2024/03/24 08:03:24;;;;;;;;;0.50;0.00;;;;;9.82;68.16;100962.31;5078706;28;48260;-74
2024/03/24 08:05:53;;;;;;;;;0.00;0.00;;;;;9.85;67.73;100958.69;5074706;28;45494;-74
2024/03/24 08:08:18;;;;;;;;;0.00;0.00;;;;;9.87;67.84;100959.50;5080436;27;46800;-73
2024/03/24 08:10:44;;;;;;;;;2.75;0.25;;;;;9.92;67.86;100970.06;5080295;27;45432;-74
2024/03/24 08:13:09;;;;;;;;;4.00;3.00;;;;;9.93;68.02;100963.84;5082109;27;45401;-74
2024/03/24 08:15:34;;;;;;;;;0.00;0.00;;;;;9.90;68.46;100964.78;5079652;27;45679;-76
2024/03/24 08:18:00;;;;;;;;;2.25;1.25;;;;;9.91;67.95;100955.88;5079472;28;45366;-77
2024/03/24 08:20:27;;;;;;;;;1.00;1.00;;;;;9.94;67.84;100960.22;5078907;28;45680;-76
2024/03/24 08:22:53;;;;;;;;;0.50;0.00;;;;;9.85;68.39;100942.69;5080242;27;45607;-74
2024/03/24 08:25:18;;;;;;;;;1.25;1.25;;;;;10.09;68.66;100974.94;5079742;27;45461;-73
2024/03/24 08:27:43;;;;;;;;;1.00;1.00;;;;;10.11;68.01;100970.47;5079969;27;45515;-77
2024/03/24 08:30:09;;;;;;;;;3.50;1.00;;;;;10.15;69.02;100972.13;5080324;27;45325;-80
2024/03/24 08:32:35;;;;;;;;;1.00;1.00;;;;;9.97;68.88;100930.81;5091244;27;45338;-81
2024/03/24 08:35:01;;;;;;;;;0.00;0.00;;;;;10.16;68.83;100963.22;5079657;27;45547;-81
2024/03/24 08:37:26;;;;;;;;;0.75;0.75;;;;;10.15;69.16;100941.00;5074516;28;45541;-81
2024/03/24 08:39:51;;;;;;;;;2.50;2.25;;;;;10.25;68.81;100978.97;5079125;28;45635;-77
2024/03/24 08:42:16;;;;;;;;;1.75;0.00;;;;;10.19;69.18;100958.69;5078671;27;58673;-77
2024/03/24 08:44:42;;;;;;;;;1.75;1.50;;;;;10.29;68.67;100969.09;5079447;27;45334;-81
2024/03/24 08:47:08;;;;;;;;;1.50;1.00;;;;;10.24;69.36;100963.91;5094316;27;45498;-81
2024/03/24 08:49:34;;;;;;;;;2.00;2.00;;;;;10.33;68.91;100979.66;5078166;28;45772;-81
2024/03/24 08:51:59;;;;;;;;;0.00;0.00;;;;;10.27;69.09;100958.44;5078755;28;47135;-81
2024/03/24 08:54:24;;;;;;;;;2.00;2.00;;;;;10.28;69.46;100957.53;5078285;28;45346;-81
2024/03/24 08:56:50;;;;;;;;;2.00;1.00;;;;;10.33;69.01;100952.97;5091598;27;45398;-81
2024/03/24 08:59:15;;;;;;;;;1.25;1.25;;;;;10.32;69.41;100943.25;5069578;28;57045;-81
2024/03/24 09:01:41;;;;;;;;;0.75;0.00;;;;;10.41;69.05;100954.56;5081487;27;45916;-72
2024/03/24 09:04:06;;;;;;;;;1.50;0.00;;;;;10.45;68.37;100957.09;5078557;28;46512;-72
2024/03/24 09:06:31;;;;;;;;;0.25;0.25;;;;;10.45;69.11;100959.75;5076804;28;45315;-77
2024/03/24 09:08:57;;;;;;;;;2.00;2.00;;;;;10.47;68.51;100960.59;5075654;27;45640;-74
2024/03/24 09:11:22;;;;;;;;;1.00;0.00;;;;;10.55;68.43;100965.72;5076980;28;52349;-76
2024/03/24 09:13:47;;;;;;;;;1.75;1.00;;;;;10.58;68.40;100960.31;5079220;27;45515;-78
2024/03/24 09:16:13;;;;;;;;;2.00;1.00;;;;;10.61;68.40;100956.66;5078406;27;45570;-74
2024/03/24 09:18:38;;;;;;;;;1.00;1.00;;;;;10.68;68.08;100975.13;5077746;27;45353;-77
2024/03/24 09:21:05;;;;;;;;;3.25;1.00;;;;;10.65;68.50;100956.53;5076988;28;50110;-76
2024/03/24 09:23:32;;;;;;;;;0.00;0.00;;;;;10.69;68.45;100960.88;5079248;27;45348;-75
2024/03/24 09:25:57;;;;;;;;;0.50;0.25;;;;;10.74;68.84;100963.38;5077606;28;45326;-77
2024/03/24 09:28:23;;;;;;;;;1.00;1.00;;;;;10.67;68.64;100948.47;5078636;28;45544;-78
2024/03/24 09:31:14;;;;;;;;;2.50;2.25;;;;;10.80;68.19;100967.69;5077276;28;48333;-78
2024/03/24 09:33:40;;;;;;;;;4.25;1.25;;;;;10.71;68.22;100953.69;5073565;28;49686;-76
2024/03/24 09:36:05;;;;;;;;;1.75;1.00;;;;;10.77;67.79;100960.63;5077908;28;45449;-77
2024/03/24 09:38:31;;;;;;;;;2.00;1.75;;;;;10.79;67.78;100952.56;5065002;27;45704;-77
2024/03/24 09:40:56;;;;;;;;;2.00;0.25;;;;;10.80;68.08;100968.53;5084229;27;45418;-77
2024/03/24 09:43:24;;;;;;;;;2.50;2.00;;;;;10.82;68.53;100964.03;5080021;27;45265;-77
2024/03/24 09:45:50;;;;;;;;;2.50;1.50;;;;;10.88;68.20;100957.66;5078961;27;45453;-77
2024/03/24 09:48:16;;;;;;;;;1.00;1.00;;;;;10.87;68.59;100956.75;5079026;27;45260;-77
2024/03/24 09:50:42;;;;;;;;;2.25;2.25;;;;;10.87;68.50;100948.75;5078839;27;46452;-77
2024/03/24 09:53:09;;;;;;;;;1.75;1.75;;;;;10.90;68.27;100945.13;5078856;28;45389;-77
2024/03/24 09:55:35;;;;;;;;;6.00;3.00;;;;;10.90;68.24;100947.78;5078905;27;45341;-77
2024/03/24 09:58:01;;;;;;;;;2.00;2.00;;;;;10.96;67.79;100947.59;5077664;28;45426;-77
2024/03/24 10:00:26;;;;;;;;;2.00;1.75;;;;;11.02;67.78;100958.09;5078685;27;46109;-77
2024/03/24 10:02:52;;;;;;;;;1.00;1.00;;;;;11.03;68.04;100942.94;5078813;27;45349;-77
2024/03/24 10:05:19;;;;;;;;;5.25;1.00;;;;;11.06;68.03;100941.06;5077697;28;45408;-78
2024/03/24 10:07:44;;;;;;;;;3.25;2.25;;;;;11.05;67.87;100939.28;5078778;27;45329;-77
2024/03/24 10:10:11;;;;;;;;;3.50;2.00;;;;;11.16;68.22;100946.09;5078606;27;46188;-77
2024/03/24 10:12:37;;;;;;;;;2.00;2.00;;;;;11.19;68.00;100951.34;5078924;28;45699;-77
2024/03/24 10:15:23;;;;;;;;;2.50;1.25;;;;;11.13;67.44;100939.94;5078444;27;45539;-77
2024/03/24 10:18:03;;;;;;;;;2.25;2.25;;;;;11.30;67.44;100949.22;5077870;28;46042;-77
2024/03/24 10:20:28;;;;;;;;;3.50;3.50;;;;;11.24;67.36;100931.59;5080453;28;47124;-77
2024/03/24 10:22:55;;;;;;;;;2.75;2.75;;;;;11.37;67.37;100940.06;5081925;27;45345;-77
2024/03/24 10:25:28;;;;;;;;;3.00;3.00;;;;;11.42;67.04;100943.47;5082145;27;45546;-77
2024/03/24 10:27:54;;;;;;;;;3.00;3.00;;;;;11.47;67.31;100944.19;5081807;27;45478;-78
2024/03/24 10:30:20;;;;;;;;;3.50;2.50;;;;;11.48;66.69;100921.88;5081939;27;45396;-77
2024/03/24 10:32:46;;;;;;;;;1.25;1.25;;;;;11.47;66.95;100922.78;5081722;28;45219;-77
2024/03/24 10:35:11;;;;;;;;;3.75;3.00;;;;;11.56;66.18;100928.75;5080616;28;45705;-77
2024/03/24 10:37:38;;;;;;;;;3.00;3.00;;;;;11.61;65.87;100930.38;5080084;28;45363;-78
2024/03/24 10:40:13;;;;;;;;;3.00;2.00;;;;;11.71;65.98;100940.75;5081613;27;45468;-77
2024/03/24 10:42:46;;;;;;;;;4.00;3.75;;;;;11.70;66.02;100934.53;5081577;27;45407;-77
2024/03/24 10:45:14;;;;;;;;;6.50;3.75;;;;;11.70;65.52;100926.50;5080382;28;45463;-78
2024/03/24 10:47:40;;;;;;;;;2.75;2.75;;;;;11.65;65.33;100923.97;5081258;27;45509;-78
2024/03/24 10:50:14;;;;;;;;;3.00;1.50;;;;;11.73;64.85;100930.84;5081788;27;45704;-78
2024/03/24 10:52:46;;;;;;;;;1.25;1.25;;;;;11.58;64.60;100892.19;5080226;28;45386;-78
2024/03/24 10:55:13;;;;;;;;;8.25;2.00;;;;;11.66;64.71;100901.69;5081616;27;45521;-77
2024/03/24 10:57:40;;;;;;;;;2.50;2.00;;;;;11.84;64.78;100926.91;5081607;27;45409;-77
2024/03/24 11:00:07;;;;;;;;;2.50;2.00;;;;;11.85;64.88;100925.97;5081110;27;45434;-78
2024/03/24 11:02:33;;;;;;;;;3.00;1.50;;;;;11.85;64.46;100917.94;5080066;28;45612;-78
2024/03/24 11:05:01;;;;;;;;;2.00;2.00;;;;;11.90;64.26;100920.47;5070549;27;45361;-78
2024/03/24 11:07:28;;;;;;;;;3.00;1.50;;;;;11.95;64.29;100921.22;5081376;27;45492;-77
2024/03/24 11:09:55;;;;;;;;;4.50;2.75;;;;;11.82;64.08;100890.44;5081227;27;45519;-77
2024/03/24 11:12:21;;;;;;;;;3.25;2.25;;;;;11.95;64.15;100915.00;5081366;27;45334;-77
2024/03/24 11:14:46;;;;;;;;;4.75;3.00;;;;;11.90;63.92;100891.03;5081108;27;45523;-78
2024/03/24 11:17:12;;;;;;;;;2.50;2.50;;;;;12.03;64.06;100904.91;5066299;28;45895;-77
2024/03/24 11:19:47;;;;;;;;;3.00;3.00;;;;;12.01;63.68;100885.31;5079564;28;48712;-76
2024/03/24 11:22:14;;;;;;;;;1.00;1.00;;;;;12.05;63.45;100887.84;5081272;28;45651;-77
2024/03/24 11:24:40;;;;;;;;;2.00;2.00;;;;;12.01;63.90;100869.28;5080935;27;45272;-77